createdAt,value
2022-10-05T00:02:25.670Z,100331.03
2022-10-05T00:04:56.143Z,100327.88
2022-10-05T00:07:25.401Z,100334.59
2022-10-05T00:09:55.841Z,100322.44
2022-10-05T00:12:24.444Z,100319.16
2022-10-05T00:14:54.308Z,100298.88
2022-10-05T00:17:22.776Z,100290.84
2022-10-05T00:20:15.521Z,100286.56
2022-10-05T00:22:42.376Z,100277.50
2022-10-05T00:25:14.995Z,100272.56
2022-10-05T00:27:46.321Z,100261.94
2022-10-05T00:30:18.800Z,100268.19
2022-10-05T00:32:50.648Z,100263.66
2022-10-05T00:35:19.529Z,100253.97
2022-10-05T00:37:47.595Z,100241.81
2022-10-05T00:40:37.147Z,100241.41
2022-10-05T00:43:17.371Z,100234.06
2022-10-05T00:45:55.640Z,100234.13
2022-10-05T00:48:22.707Z,100228.78
2022-10-05T00:51:12.432Z,100233.25
2022-10-05T00:53:51.681Z,100244.50
2022-10-05T00:56:30.850Z,100248.22
2022-10-05T00:59:16.583Z,100242.25
2022-10-05T01:01:43.392Z,100238.66
2022-10-05T01:04:19.554Z,100248.22
2022-10-05T01:06:50.496Z,100249.34
2022-10-05T01:09:34.450Z,100256.41
2022-10-05T01:12:31.507Z,100248.53
2022-10-05T01:15:20.119Z,100251.06
2022-10-05T01:17:53.690Z,100238.66
2022-10-05T01:20:23.745Z,100232.63
2022-10-05T01:23:15.635Z,100229.22
2022-10-05T01:26:05.929Z,100223.00
2022-10-05T01:28:42.475Z,100215.25
2022-10-05T01:31:28.824Z,100223.19
2022-10-05T01:33:59.672Z,100222.22
2022-10-05T01:36:26.662Z,100221.34
2022-10-05T01:38:54.489Z,100218.81
2022-10-05T01:41:24.394Z,100212.63
2022-10-05T01:44:09.961Z,100206.00
2022-10-05T01:46:57.662Z,100214.91
2022-10-05T01:50:02.529Z,100210.44
2022-10-05T01:52:41.226Z,100211.03
2022-10-05T01:55:30.002Z,100211.72
2022-10-05T01:58:02.776Z,100197.66
2022-10-05T02:00:41.156Z,100201.31
2022-10-05T02:03:18.818Z,100199.75
2022-10-05T02:06:07.913Z,100206.63
2022-10-05T02:08:45.184Z,100209.88
2022-10-05T02:11:15.157Z,100204.63
2022-10-05T02:13:51.135Z,100212.84
2022-10-05T02:16:24.791Z,100211.50
2022-10-05T02:19:10.678Z,100210.94
2022-10-05T02:21:37.662Z,100217.13
2022-10-05T02:24:13.528Z,100223.41
2022-10-05T02:26:44.088Z,100239.06
2022-10-05T02:29:13.733Z,100246.19
2022-10-05T02:31:47.059Z,100244.56
2022-10-05T02:34:30.807Z,100242.81
2022-10-05T02:37:00.558Z,100239.03
2022-10-05T02:39:37.787Z,100232.06
2022-10-05T02:42:11.257Z,100232.94
2022-10-05T02:44:58.630Z,100234.75
2022-10-05T02:47:37.604Z,100238.59
2022-10-05T02:50:27.296Z,100233.03
2022-10-05T02:53:00.876Z,100226.94
2022-10-05T02:55:46.107Z,100221.97
2022-10-05T02:58:18.814Z,100201.88
2022-10-05T03:00:48.221Z,100194.06
2022-10-05T03:03:40.920Z,100180.97
2022-10-05T03:06:17.693Z,100192.56
2022-10-05T03:08:44.540Z,100200.63
2022-10-05T03:11:23.687Z,100203.78
2022-10-05T03:14:09.334Z,100196.66
2022-10-05T03:16:58.203Z,100205.50
2022-10-05T03:19:50.709Z,100202.97
2022-10-05T03:22:25.114Z,100195.94
2022-10-05T03:25:13.264Z,100192.66
2022-10-05T03:28:13.898Z,100197.81
2022-10-05T03:31:06.862Z,100210.03
2022-10-05T03:33:41.300Z,100200.38
2022-10-05T03:36:26.765Z,100196.03
2022-10-05T03:38:54.700Z,100205.75
2022-10-05T03:41:43.064Z,100204.03
2022-10-05T03:44:16.974Z,100205.88
2022-10-05T03:46:57.556Z,100205.88
2022-10-05T03:49:38.214Z,100205.84
2022-10-05T03:52:18.225Z,100200.66
2022-10-05T03:54:50.620Z,100201.53
2022-10-05T03:57:25.068Z,100206.91
2022-10-05T03:59:52.862Z,100204.97
2022-10-05T04:02:31.369Z,100207.59
2022-10-05T04:05:03.605Z,100204.13
2022-10-05T04:07:43.811Z,100197.09
2022-10-05T04:10:31.821Z,100190.16
2022-10-05T04:13:02.549Z,100194.56
2022-10-05T04:15:49.162Z,100193.78
2022-10-05T04:18:43.058Z,100187.59
2022-10-05T04:21:23.356Z,100188.53
2022-10-05T04:23:59.850Z,100186.47
2022-10-05T04:26:41.001Z,100197.78
2022-10-05T04:29:15.179Z,100190.75
2022-10-05T04:32:02.800Z,100188.94
2022-10-05T04:34:49.279Z,100185.63
2022-10-05T04:37:26.334Z,100190.03
2022-10-05T04:40:08.245Z,100183.81
2022-10-05T04:42:55.393Z,100192.69
2022-10-05T04:45:22.289Z,100184.91
2022-10-05T04:48:19.948Z,100184.97
2022-10-05T04:51:05.114Z,100177.88
2022-10-05T04:53:46.257Z,100175.06
2022-10-05T04:56:18.935Z,100173.38
2022-10-05T04:59:01.927Z,100186.59
2022-10-05T05:01:51.613Z,100196.09
2022-10-05T05:04:19.776Z,100196.19
2022-10-05T05:07:02.581Z,100202.91
2022-10-05T05:09:34.253Z,100195.66
2022-10-05T05:12:01.179Z,100192.94
2022-10-05T05:14:47.885Z,100182.47
2022-10-05T05:17:33.079Z,100180.75
2022-10-05T05:20:06.978Z,100172.09
2022-10-05T05:22:33.949Z,100173.09
2022-10-05T05:25:00.696Z,100172.94
2022-10-05T05:27:36.517Z,100177.34
2022-10-05T05:30:12.936Z,100179.69
2022-10-05T05:33:05.445Z,100187.34
2022-10-05T05:35:44.328Z,100174.22
2022-10-05T05:38:15.212Z,100181.09
2022-10-05T05:40:50.660Z,100177.47
2022-10-05T05:43:24.793Z,100174.66
2022-10-05T05:45:57.948Z,100170.81
2022-10-05T05:48:30.898Z,100164.69
2022-10-05T05:51:10.037Z,100162.59
2022-10-05T05:53:52.713Z,100166.75
2022-10-05T05:56:24.359Z,100165.72
2022-10-05T05:58:54.198Z,100173.44
2022-10-05T06:01:32.861Z,100175.16
2022-10-05T06:04:00.715Z,100168.97
2022-10-05T06:06:36.294Z,100169.63
2022-10-05T06:09:07.127Z,100166.00
2022-10-05T06:11:50.682Z,100168.34
2022-10-05T06:14:26.243Z,100169.38
2022-10-05T06:17:12.447Z,100164.72
2022-10-05T06:19:39.443Z,100170.72
2022-10-05T06:22:12.810Z,100165.34
2022-10-05T06:24:55.898Z,100165.16
2022-10-05T06:27:39.005Z,100164.19
2022-10-05T06:30:10.385Z,100167.56
2022-10-05T06:33:07.784Z,100170.16
2022-10-05T06:35:37.746Z,100179.78
2022-10-05T06:38:13.998Z,100173.56
2022-10-05T06:40:47.069Z,100164.56
2022-10-05T06:43:36.117Z,100172.28
2022-10-05T06:46:07.417Z,100172.88
2022-10-05T06:48:55.063Z,100172.72
2022-10-05T06:51:44.715Z,100168.97
2022-10-05T06:54:33.391Z,100173.06
2022-10-05T06:57:17.534Z,100178.84
2022-10-05T06:59:58.227Z,100187.41
2022-10-05T07:02:43.458Z,100188.94
2022-10-05T07:05:19.474Z,100187.63
2022-10-05T07:07:55.490Z,100183.38
2022-10-05T07:10:31.635Z,100191.00
2022-10-05T07:13:05.457Z,100195.63
2022-10-05T07:15:55.431Z,100200.28
2022-10-05T07:18:34.568Z,100200.88
2022-10-05T07:21:24.287Z,100202.75
2022-10-05T07:23:54.225Z,100205.34
2022-10-05T07:26:31.239Z,100209.88
2022-10-05T07:29:17.785Z,100206.94
2022-10-05T07:31:49.899Z,100207.13
2022-10-05T07:34:35.855Z,100199.75
2022-10-05T07:37:24.484Z,100202.13
2022-10-05T07:40:16.943Z,100211.88
2022-10-05T07:43:09.162Z,100208.81
2022-10-05T07:45:51.622Z,100217.63
2022-10-05T07:48:37.067Z,100220.84
2022-10-05T07:51:06.849Z,100216.66
2022-10-05T07:53:36.997Z,100214.31
2022-10-05T07:56:33.994Z,100216.94
2022-10-05T07:59:08.109Z,100210.38
2022-10-05T08:01:37.834Z,100198.75
2022-10-05T08:04:06.833Z,100197.91
2022-10-05T08:06:46.849Z,100199.50
2022-10-05T08:09:39.809Z,100197.38
2022-10-05T08:12:24.605Z,100201.91
2022-10-05T08:15:01.569Z,100208.22
2022-10-05T08:17:38.549Z,100196.72
2022-10-05T08:20:26.075Z,100205.63
2022-10-05T08:22:59.209Z,100206.38
2022-10-05T08:25:30.477Z,100218.47
2022-10-05T08:28:05.976Z,100210.44
2022-10-05T08:30:35.647Z,100207.56
2022-10-05T08:33:13.137Z,100209.34
2022-10-05T08:35:45.130Z,100208.00
2022-10-05T08:38:18.869Z,100212.53
2022-10-05T08:41:15.126Z,100208.75
2022-10-05T08:43:59.850Z,100210.13
2022-10-05T08:46:44.220Z,100201.53
2022-10-05T08:49:35.440Z,100204.41
2022-10-05T08:52:24.175Z,100212.53
2022-10-05T08:55:09.499Z,100208.97
2022-10-05T08:57:45.133Z,100203.84
2022-10-05T09:00:14.223Z,100209.16
2022-10-05T09:03:00.813Z,100195.72
2022-10-05T09:05:48.405Z,100201.31
2022-10-05T09:08:31.445Z,100211.41
2022-10-05T09:11:11.597Z,100202.25
2022-10-05T09:13:57.672Z,100209.47
2022-10-05T09:16:57.441Z,100203.31
2022-10-05T09:19:53.314Z,100206.69
2022-10-05T09:22:40.048Z,100193.94
2022-10-05T09:25:18.078Z,100191.25
2022-10-05T09:27:57.128Z,100197.06
2022-10-05T09:30:35.034Z,100196.91
2022-10-05T09:33:39.094Z,100199.34
2022-10-05T09:36:12.694Z,100206.56
2022-10-05T09:38:40.488Z,100214.25
2022-10-05T09:41:34.475Z,100210.22
2022-10-05T09:44:22.327Z,100199.78
2022-10-05T09:47:11.114Z,100198.84
2022-10-05T09:49:57.753Z,100196.97
2022-10-05T09:52:45.532Z,100189.38
2022-10-05T09:55:33.336Z,100181.78
2022-10-05T09:58:00.180Z,100179.41
2022-10-05T10:00:51.485Z,100186.34
2022-10-05T10:03:26.415Z,100183.75
2022-10-05T10:06:02.949Z,100193.66
2022-10-05T10:08:52.807Z,100188.31
2022-10-05T10:11:19.669Z,100183.88
2022-10-05T10:13:57.456Z,100192.03
2022-10-05T10:16:24.327Z,100192.53
2022-10-05T10:19:14.199Z,100186.47
2022-10-05T10:22:24.999Z,100180.69
2022-10-05T10:24:51.922Z,100180.22
2022-10-05T10:27:33.720Z,100177.56
2022-10-05T10:30:20.032Z,100176.09
2022-10-05T10:33:12.007Z,100175.09
2022-10-05T10:35:41.990Z,100163.19
2022-10-05T10:38:22.507Z,100174.25
2022-10-05T10:41:09.466Z,100167.47
2022-10-05T10:44:01.138Z,100168.25
2022-10-05T10:46:49.662Z,100171.09
2022-10-05T10:49:26.711Z,100161.38
2022-10-05T10:52:13.469Z,100157.03
2022-10-05T10:54:41.306Z,100174.41
2022-10-05T10:57:30.022Z,100164.75
2022-10-05T11:00:10.109Z,100164.41
2022-10-05T11:02:49.093Z,100168.75
2022-10-05T11:05:37.082Z,100173.97
2022-10-05T11:08:10.292Z,100171.78
2022-10-05T11:10:59.248Z,100170.59
2022-10-05T11:13:26.202Z,100158.72
2022-10-05T11:16:02.292Z,100163.34
2022-10-05T11:18:49.403Z,100160.41
2022-10-05T11:21:37.093Z,100155.47
2022-10-05T11:24:19.413Z,100150.53
2022-10-05T11:27:00.540Z,100145.31
2022-10-05T11:29:47.198Z,100147.41
2022-10-05T11:32:37.817Z,100143.38
2022-10-05T11:35:30.352Z,100145.06
2022-10-05T11:38:16.054Z,100130.06
2022-10-05T11:41:08.469Z,100134.81
2022-10-05T11:43:40.837Z,100124.91
2022-10-05T11:46:16.927Z,100130.41
2022-10-05T11:49:22.135Z,100121.03
2022-10-05T11:52:07.060Z,100106.59
2022-10-05T11:55:16.136Z,100105.50
2022-10-05T11:57:48.233Z,100103.41
2022-10-05T12:00:25.528Z,100108.38
2022-10-05T12:02:54.528Z,100103.69
2022-10-05T12:05:32.724Z,100104.00
2022-10-05T12:08:17.045Z,100106.22
2022-10-05T12:10:57.158Z,100101.97
2022-10-05T12:13:46.088Z,100104.63
2022-10-05T12:16:18.669Z,100092.69
2022-10-05T12:19:00.796Z,100084.47
2022-10-05T12:21:49.576Z,100089.91
2022-10-05T12:24:26.866Z,100089.00
2022-10-05T12:27:02.440Z,100082.13
2022-10-05T12:29:45.704Z,100085.25
2022-10-05T12:32:27.375Z,100086.75
2022-10-05T12:35:04.963Z,100091.97
2022-10-05T12:37:48.342Z,100078.75
2022-10-05T12:40:19.341Z,100076.16
2022-10-05T12:42:57.047Z,100080.25
2022-10-05T12:45:24.969Z,100069.91
2022-10-05T12:47:53.865Z,100073.00
2022-10-05T12:51:04.603Z,100075.56
2022-10-05T12:53:37.523Z,100068.34
2022-10-05T12:56:08.901Z,100064.53
2022-10-05T12:58:48.907Z,100068.81
2022-10-05T13:01:41.548Z,100063.28
2022-10-05T13:04:33.432Z,100056.66
2022-10-05T13:07:03.418Z,100055.59
2022-10-05T13:09:59.573Z,100055.78
2022-10-05T13:12:39.817Z,100051.50
2022-10-05T13:15:13.937Z,100056.75
2022-10-05T13:17:54.974Z,100049.59
2022-10-05T13:20:38.111Z,100050.44
2022-10-05T13:23:23.375Z,100048.44
2022-10-05T13:25:57.206Z,100047.06
2022-10-05T13:28:34.354Z,100049.63
2022-10-05T13:31:04.210Z,100050.59
2022-10-05T13:33:36.769Z,100053.41
2022-10-05T13:36:42.290Z,100044.00
2022-10-05T13:39:33.373Z,100044.38
2022-10-05T13:42:13.184Z,100037.19
2022-10-05T13:44:46.010Z,100036.72
2022-10-05T13:47:19.453Z,100032.16
2022-10-05T13:49:55.103Z,100039.91
2022-10-05T13:52:25.932Z,100028.13
2022-10-05T13:55:29.865Z,100020.47
2022-10-05T13:58:06.073Z,100025.13
2022-10-05T14:00:40.047Z,100029.00
2022-10-05T14:03:23.819Z,100031.91
2022-10-05T14:06:01.758Z,100026.03
2022-10-05T14:08:30.591Z,100012.44
2022-10-05T14:10:58.524Z,100013.78
2022-10-05T14:13:27.215Z,100009.97
2022-10-05T14:16:12.573Z,100014.88
2022-10-05T14:18:50.219Z,100014.88
2022-10-05T14:21:36.767Z,100010.59
2022-10-05T14:24:43.185Z,100018.88
2022-10-05T14:27:31.489Z,100017.91
2022-10-05T14:30:17.314Z,100019.81
2022-10-05T14:32:50.950Z,100015.53
2022-10-05T14:35:18.704Z,100012.53
2022-10-05T14:37:58.726Z,100015.84
2022-10-05T14:40:28.059Z,100003.69
2022-10-05T14:42:56.600Z,100010.09
2022-10-05T14:45:33.616Z,100008.75
2022-10-05T14:48:02.112Z,100010.53
2022-10-05T14:50:31.674Z,100009.03
2022-10-05T14:53:14.543Z,100010.78
2022-10-05T14:55:47.231Z,100018.47
2022-10-05T14:58:32.867Z,100012.94
2022-10-05T15:01:13.946Z,100005.91
2022-10-05T15:03:47.130Z,100002.00
2022-10-05T15:06:35.208Z,99999.31
2022-10-05T15:09:17.697Z,99998.69
2022-10-05T15:11:51.588Z,99989.44
2022-10-05T15:14:25.621Z,99995.16
2022-10-05T15:16:58.337Z,99988.78
2022-10-05T15:19:50.683Z,99996.41
2022-10-05T15:22:18.988Z,99984.97
2022-10-05T15:25:03.132Z,99978.31
2022-10-05T15:27:31.028Z,99984.03
2022-10-05T15:30:03.858Z,99982.41
2022-10-05T15:32:43.075Z,99988.31
2022-10-05T15:35:29.148Z,99977.41
2022-10-05T15:38:21.512Z,99977.69
2022-10-05T15:41:11.074Z,99986.84
2022-10-05T15:43:46.452Z,99978.56
2022-10-05T15:46:14.373Z,99984.75
2022-10-05T15:49:01.101Z,99984.44
2022-10-05T15:51:50.968Z,99992.19
2022-10-05T15:54:43.547Z,99982.03
2022-10-05T15:57:33.696Z,99985.09
2022-10-05T16:00:04.927Z,99984.94
2022-10-05T16:02:42.218Z,99992.06
2022-10-05T16:05:40.331Z,99978.06
2022-10-05T16:08:31.003Z,99974.88
2022-10-05T16:11:05.579Z,99979.97
2022-10-05T16:13:40.149Z,99982.06
2022-10-05T16:16:25.464Z,99982.22
2022-10-05T16:19:11.415Z,99977.25
2022-10-05T16:21:51.774Z,99978.38
2022-10-05T16:24:24.673Z,99978.00
2022-10-05T16:27:03.855Z,99972.09
2022-10-05T16:29:37.421Z,99966.41
2022-10-05T16:32:12.733Z,99971.94
2022-10-05T16:34:54.783Z,99980.19
2022-10-05T16:37:25.129Z,99974.34
2022-10-05T16:40:13.947Z,99985.16
2022-10-05T16:43:05.763Z,99984.84
2022-10-05T16:46:07.683Z,99985.16
2022-10-05T16:49:10.671Z,99987.06
2022-10-05T16:51:43.779Z,99989.75
2022-10-05T16:54:20.281Z,99987.56
2022-10-05T16:56:53.457Z,99990.47
2022-10-05T16:59:38.802Z,99985.50
2022-10-05T17:02:11.392Z,99988.22
2022-10-05T17:04:38.969Z,99990.47
2022-10-05T17:07:18.170Z,99986.84
2022-10-05T17:09:49.119Z,99991.31
2022-10-05T17:12:42.805Z,99990.97
2022-10-05T17:15:13.234Z,99995.44
2022-10-05T17:18:06.317Z,99991.22
2022-10-05T17:20:51.875Z,99987.84
2022-10-05T17:23:50.741Z,99988.97
2022-10-05T17:26:24.553Z,99987.22
2022-10-05T17:28:57.708Z,99977.88
2022-10-05T17:31:26.027Z,99984.28
2022-10-05T17:34:31.145Z,99992.31
2022-10-05T17:36:59.915Z,99989.13
2022-10-05T17:39:51.708Z,99988.34
2022-10-05T17:42:30.646Z,99988.34
2022-10-05T17:45:02.829Z,99984.47
2022-10-05T17:47:48.503Z,99991.16
2022-10-05T17:50:53.954Z,99978.94
2022-10-05T17:53:41.516Z,99982.84
2022-10-05T17:56:17.505Z,99987.50
2022-10-05T17:58:55.409Z,99991.94
2022-10-05T18:01:38.809Z,99990.38
2022-10-05T18:04:13.817Z,99988.13
2022-10-05T18:06:45.281Z,99988.38
2022-10-05T18:09:12.835Z,99995.63
2022-10-05T18:11:41.857Z,99992.28
2022-10-05T18:14:20.893Z,99987.91
2022-10-05T18:17:11.436Z,99982.88
2022-10-05T18:19:39.821Z,99987.72
2022-10-05T18:22:15.994Z,99978.28
2022-10-05T18:24:56.504Z,99984.75
2022-10-05T18:27:32.100Z,99984.75
2022-10-05T18:30:19.117Z,99983.81
2022-10-05T18:33:13.970Z,99990.06
2022-10-05T18:35:47.511Z,99988.22
2022-10-05T18:38:22.314Z,99983.81
2022-10-05T18:41:00.652Z,99981.94
2022-10-05T18:43:27.472Z,99986.47
2022-10-05T18:46:14.184Z,99996.00
2022-10-05T18:48:50.715Z,99987.88
2022-10-05T18:51:26.656Z,99988.22
2022-10-05T18:54:14.442Z,99998.13
2022-10-05T18:56:46.713Z,99992.81
2022-10-05T18:59:25.833Z,99988.34
2022-10-05T19:02:11.884Z,99993.91
2022-10-05T19:04:42.213Z,99982.50
2022-10-05T19:07:30.397Z,99991.41
2022-10-05T19:10:09.379Z,99985.38
2022-10-05T19:12:48.553Z,99986.16
2022-10-05T19:15:18.611Z,99986.31
2022-10-05T19:17:45.529Z,99990.47
2022-10-05T19:20:18.993Z,99988.59
2022-10-05T19:23:08.653Z,99991.34
2022-10-05T19:25:43.763Z,99987.88
2022-10-05T19:28:19.035Z,99980.69
2022-10-05T19:31:01.762Z,99980.84
2022-10-05T19:33:48.814Z,99978.34
2022-10-05T19:36:25.054Z,99972.88
2022-10-05T19:38:59.418Z,99979.13
2022-10-05T19:41:44.271Z,99982.72
2022-10-05T19:44:31.040Z,99978.09
2022-10-05T19:47:02.876Z,99974.53
2022-10-05T19:49:52.813Z,99976.16
2022-10-05T19:52:30.594Z,99971.63
2022-10-05T19:55:24.452Z,99985.78
2022-10-05T19:57:54.380Z,99981.06
2022-10-05T20:00:24.838Z,99974.28
2022-10-05T20:06:13.520Z,99978.03
2022-10-05T20:08:45.345Z,99980.59
2022-10-05T20:11:14.443Z,99987.03
2022-10-05T20:13:43.726Z,99985.47
2022-10-05T20:16:49.376Z,100000.41
2022-10-05T20:22:40.507Z,99990.63
2022-10-05T20:25:29.001Z,99995.09
2022-10-05T20:27:56.598Z,100002.28
2022-10-05T20:30:43.098Z,99994.28
2022-10-05T20:33:15.039Z,100006.81
2022-10-05T20:35:41.994Z,100003.38
2022-10-05T20:38:09.864Z,100001.50
2022-10-05T20:40:36.691Z,99998.75
2022-10-05T20:43:03.601Z,100005.63
2022-10-05T20:45:35.479Z,100001.22
2022-10-05T20:48:03.533Z,100003.03
2022-10-05T20:50:33.026Z,100000.56
2022-10-05T20:53:11.966Z,99989.13
2022-10-05T20:55:40.168Z,99994.53
2022-10-05T20:58:13.081Z,99994.34
2022-10-05T21:00:59.230Z,99993.63
2022-10-05T21:03:35.070Z,99995.94
2022-10-05T21:06:05.103Z,100002.53
2022-10-05T21:08:32.988Z,99996.91
2022-10-05T21:11:23.251Z,100007.63
2022-10-05T21:13:53.907Z,100007.03
2022-10-05T21:16:21.197Z,100012.00
2022-10-05T21:18:52.153Z,100010.34
2022-10-05T21:21:33.364Z,100013.63
2022-10-05T21:24:03.309Z,100016.56
2022-10-05T21:26:34.076Z,100016.31
2022-10-05T21:29:02.784Z,100018.19
2022-10-05T21:31:37.179Z,100017.59
2022-10-05T21:34:05.212Z,100020.59
2022-10-05T21:36:32.863Z,100027.09
2022-10-05T21:39:00.316Z,100021.09
2022-10-05T21:41:28.227Z,100025.66
2022-10-05T21:44:07.026Z,100032.00
2022-10-05T21:46:40.468Z,100025.22
2022-10-05T21:49:07.747Z,100031.75
2022-10-05T21:51:36.788Z,100045.31
2022-10-05T21:54:09.548Z,100036.13
2022-10-05T21:56:38.809Z,100041.44
2022-10-05T21:59:24.054Z,100039.56
2022-10-05T22:02:04.341Z,100045.19
2022-10-05T22:04:39.203Z,100050.16
2022-10-05T22:07:29.310Z,100056.34
2022-10-05T22:09:57.170Z,100057.06
2022-10-05T22:12:29.098Z,100047.16
2022-10-05T22:14:59.029Z,100047.16
2022-10-05T22:17:31.182Z,100052.63
2022-10-05T22:19:59.462Z,100045.72
2022-10-05T22:22:27.393Z,100047.00
2022-10-05T22:24:54.851Z,100050.97
2022-10-05T22:27:23.305Z,100047.59
2022-10-05T22:29:51.499Z,100051.13
2022-10-05T22:32:18.436Z,100057.16
2022-10-05T22:34:46.794Z,100055.09
2022-10-05T22:37:14.012Z,100062.47
2022-10-05T22:39:43.437Z,100053.34
2022-10-05T22:42:12.379Z,100061.53
2022-10-05T22:44:42.449Z,100058.88
2022-10-05T22:47:10.336Z,100070.78
2022-10-05T22:49:42.939Z,100079.22
2022-10-05T22:52:17.924Z,100073.25
2022-10-05T22:54:44.887Z,100077.41
2022-10-05T22:57:12.722Z,100084.94
2022-10-05T22:59:39.564Z,100079.84
2022-10-05T23:02:06.496Z,100091.06
2022-10-05T23:04:34.367Z,100091.84
2022-10-05T23:07:01.363Z,100094.75
2022-10-05T23:09:28.132Z,100099.34
2022-10-05T23:11:55.016Z,100114.06
2022-10-05T23:14:21.911Z,100108.81
2022-10-05T23:16:50.203Z,100113.34
2022-10-05T23:19:17.158Z,100116.34
2022-10-05T23:21:44.218Z,100116.03
2022-10-05T23:24:11.084Z,100126.47
2022-10-05T23:26:42.876Z,100129.81
2022-10-05T23:29:10.229Z,100134.38
2022-10-05T23:31:37.170Z,100142.72
2022-10-05T23:34:04.223Z,100138.63
2022-10-05T23:36:33.916Z,100146.53
2022-10-05T23:39:00.948Z,100156.94
2022-10-05T23:41:30.810Z,100151.81
2022-10-05T23:44:00.770Z,100158.03
2022-10-05T23:46:27.621Z,100162.97
2022-10-05T23:48:54.782Z,100160.44
2022-10-05T23:51:22.805Z,100164.25
2022-10-05T23:53:49.801Z,100159.47
2022-10-05T23:56:23.699Z,100165.59
2022-10-05T23:58:50.519Z,100161.25
